T'ai-chung, Taiwan
Current Conditions -  °F | °C
As of 8:00 PM on Thursday 30 Oct 2014 (Local Time) from RCMQ Reporting Station
Scattered Clouds Scattered Clouds  
Wind Chill: 72°   Ceiling: Unl
Heat Index: 72°   Visibility: 4mi
Dew Point: 66°   Wind: 3mph
Humidity: 83%   Direction: 350°N
Pressure: 29.97"   Gusts: NA
Location:  24.15°N, 120.68°E
Report Text: RCMQ 301200Z 35003KT 7000 FEW012 SCT060 22/19 Q1015 NOSIG RMK A3000
Loading
Personal Weather Stations






























Interactive Weather Map
Tropical Storm Tracking
New forecast layout! Learn more

10-Day Weather Forecast

Advertisements
Track Severe Weather on mobile